Orbital elements of COSMOS 732
| Launched | 27 May 1975 |
| Flight ended | – |
| Launch site | Plesetsk Missile and Space Complex, Russia |
| Owner | Commonwealth of Independent States (former USSR) |
| NORAD ID | 7820 |
| Date fetched |
Epoch osculation |
Inc. [°] |
Ecc. | RA asc node [hr] |
Arg Peri. [°] |
Mean anom [°] |
Mean motion [rev/day] |
Abs. mag |
| Date fetched |
Epoch osculation |
Inc. [°] |
Ecc. | RA asc node [hr] |
Arg Peri. [°] |
Mean anom [°] |
Mean motion [rev/day] |
Abs. mag |
| 2026 May 07 17:58 | 2026 May 05 12:37:14 | 74.0197 | 0.00433 | 3.4507 | 249.8301 | 221.9947 | 12.56724 | – |
| 2026 May 06 17:57 | 2026 May 05 12:37:14 | 74.0197 | 0.00433 | 3.4507 | 249.8301 | 221.9947 | 12.56724 | – |
| 2026 May 05 17:57 | 2026 May 05 12:37:14 | 74.0197 | 0.00433 | 3.4507 | 249.8301 | 221.9947 | 12.56724 | – |
| 2026 May 04 17:57 | 2026 Apr 30 14:30:34 | 74.0190 | 0.00433 | 3.8924 | 257.2175 | 221.9947 | 12.56724 | – |
| 2026 May 03 17:57 | 2026 Apr 30 14:30:34 | 74.0190 | 0.00433 | 3.8924 | 257.2175 | 221.9947 | 12.56724 | – |
| 2026 May 02 17:57 | 2026 Apr 30 14:30:34 | 74.0190 | 0.00433 | 3.8924 | 257.2175 | 221.9947 | 12.56724 | – |
| 2026 May 01 17:56 | 2026 Apr 30 14:30:34 | 74.0190 | 0.00433 | 3.8924 | 257.2175 | 221.9947 | 12.56724 | – |
| 2026 Apr 30 17:56 | 2026 Apr 30 14:30:34 | 74.0190 | 0.00433 | 3.8924 | 257.2175 | 221.9947 | 12.56724 | – |
| 2026 Apr 29 17:57 | 2026 Apr 24 07:28:38 | 74.0178 | 0.00433 | 4.4574 | 266.6629 | 221.9947 | 12.56724 | – |
| 2026 Apr 28 17:56 | 2026 Apr 24 07:28:38 | 74.0178 | 0.00433 | 4.4574 | 266.6629 | 221.9947 | 12.56724 | – |
| 2026 Apr 27 17:58 | 2026 Apr 24 07:28:38 | 74.0178 | 0.00433 | 4.4574 | 266.6629 | 221.9947 | 12.56724 | – |
| 2026 Apr 26 17:58 | 2026 Apr 24 07:28:38 | 74.0178 | 0.00433 | 4.4574 | 266.6629 | 221.9947 | 12.56724 | – |
| 2026 Apr 25 17:58 | 2026 Apr 24 07:28:38 | 74.0178 | 0.00433 | 4.4574 | 266.6629 | 221.9947 | 12.56724 | – |
| 2026 Apr 24 17:59 | 2026 Apr 24 07:28:38 | 74.0178 | 0.00433 | 4.4574 | 266.6629 | 221.9947 | 12.56724 | – |
| 2026 Apr 23 17:57 | 2026 Apr 19 08:36:35 | 74.0167 | 0.00434 | 4.9020 | 274.0859 | 221.9947 | 12.56724 | – |
| 2026 Apr 22 17:57 | 2026 Apr 19 08:36:35 | 74.0167 | 0.00434 | 4.9020 | 274.0859 | 221.9947 | 12.56724 | – |
| 2026 Apr 21 17:57 | 2026 Apr 19 08:36:35 | 74.0167 | 0.00434 | 4.9020 | 274.0859 | 221.9947 | 12.56724 | – |
| 2026 Apr 20 17:57 | 2026 Apr 19 08:36:35 | 74.0167 | 0.00434 | 4.9020 | 274.0859 | 221.9947 | 12.56724 | – |
| 2026 Apr 19 17:58 | 2026 Apr 19 08:36:35 | 74.0167 | 0.00434 | 4.9020 | 274.0859 | 221.9947 | 12.56724 | – |
| 2026 Apr 18 17:56 | 2026 Apr 13 07:23:08 | 74.0155 | 0.00434 | 5.4454 | 283.1412 | 221.9947 | 12.56724 | – |
| 2026 Apr 16 17:57 | 2026 Apr 13 07:23:08 | 74.0155 | 0.00434 | 5.4454 | 283.1412 | 221.9947 | 12.56724 | – |
| 2026 Apr 14 17:57 | 2026 Apr 13 07:23:08 | 74.0155 | 0.00434 | 5.4454 | 283.1412 | 221.9947 | 12.56724 | – |
| 2026 Apr 13 17:57 | 2026 Apr 13 07:23:08 | 74.0155 | 0.00434 | 5.4454 | 283.1412 | 221.9947 | 12.56724 | – |
| 2026 Apr 12 17:57 | 2026 Apr 08 11:08:16 | 74.0147 | 0.00434 | 5.8803 | 290.3830 | 221.9947 | 12.56724 | – |
| 2026 Apr 11 17:57 | 2026 Apr 08 11:08:16 | 74.0147 | 0.00434 | 5.8803 | 290.3830 | 221.9947 | 12.56724 | – |
| 2026 Apr 10 17:58 | 2026 Apr 08 11:08:16 | 74.0147 | 0.00434 | 5.8803 | 290.3830 | 221.9947 | 12.56724 | – |